Time;durP1;ratioP1;P1;durP2;ratioP2;P2;SDS_P1;SDS_P2;PMS_P1;PMS_P2;Temp;Humidity;BMP_temperature;BMP_pressure;BME280_temperature;BME280_humidity;BME280_pressure;Samples;Min_cycle;Max_cycle;Signal;HPM_P1;HPM_P2
2023/10/21 00:00:24;;;;;;;327.23;81.68;;;9.20;99.90;;;;;;5101668;28;20044;-77
2023/10/21 00:02:51;;;;;;;275.58;78.40;;;9.20;99.90;;;;;;5105167;28;20044;-79
2023/10/21 00:05:17;;;;;;;184.77;67.45;;;9.20;99.90;;;;;;5093578;28;20048;-78
2023/10/21 00:07:43;;;;;;;242.82;72.22;;;9.30;99.90;;;;;;5088265;28;20048;-78
2023/10/21 00:10:09;;;;;;;271.83;75.65;;;9.30;99.90;;;;;;5088431;28;20044;-77
2023/10/21 00:12:35;;;;;;;214.05;69.35;;;9.30;99.90;;;;;;5102997;28;20048;-78
2023/10/21 00:15:02;;;;;;;376.55;88.15;;;9.40;99.90;;;;;;5081630;28;20051;-77
2023/10/21 00:17:34;;;;;;;459.52;96.75;;;9.40;99.90;;;;;;5102216;27;20099;-77
2023/10/21 00:20:00;;;;;;;250.82;74.22;;;9.40;99.90;;;;;;5097562;28;20366;-76
2023/10/21 00:22:26;;;;;;;447.55;96.65;;;9.40;99.90;;;;;;5097462;28;20044;-77
2023/10/21 00:24:52;;;;;;;458.83;97.68;;;9.40;99.90;;;;;;5084054;28;20065;-77
2023/10/21 00:27:18;;;;;;;332.20;84.57;;;9.50;99.90;;;;;;5087021;28;20036;-77
2023/10/21 00:29:44;;;;;;;498.73;103.43;;;9.50;99.90;;;;;;5091208;28;20379;-77
2023/10/21 00:32:10;;;;;;;433.10;94.88;;;9.50;99.90;;;;;;5097757;28;20032;-78
2023/10/21 00:34:39;;;;;;;346.70;84.90;;;9.50;99.90;;;;;;5093536;28;20036;-77
2023/10/21 00:37:08;;;;;;;320.05;83.53;;;9.50;99.90;;;;;;5102735;28;20044;-77
2023/10/21 00:39:34;;;;;;;323.92;85.35;;;9.60;99.90;;;;;;5091018;28;20482;-78
2023/10/21 00:42:04;;;;;;;361.00;88.97;;;9.60;99.90;;;;;;5083475;28;20044;-77
2023/10/21 00:44:30;;;;;;;203.75;70.40;;;9.60;99.90;;;;;;5100736;28;20040;-78
2023/10/21 00:46:59;;;;;;;275.80;79.63;;;9.70;99.90;;;;;;5105512;28;20085;-77
2023/10/21 00:49:28;;;;;;;351.27;88.38;;;9.70;99.90;;;;;;5116356;28;20166;-77
2023/10/21 00:51:54;;;;;;;356.23;89.38;;;10.00;99.90;;;;;;5106664;28;20048;-77
2023/10/21 00:54:20;;;;;;;196.25;71.38;;;9.70;99.90;;;;;;5099877;28;20047;-78
2023/10/21 00:56:46;;;;;;;233.35;76.10;;;9.80;99.90;;;;;;5094718;28;20044;-78
2023/10/21 00:59:15;;;;;;;338.77;86.72;;;9.80;99.90;;;;;;5106054;28;20184;-79
2023/10/21 01:01:40;;;;;;;300.15;82.93;;;9.80;99.90;;;;;;5102681;28;20051;-78
2023/10/21 01:04:10;;;;;;;265.67;78.13;;;9.80;99.90;;;;;;5114226;28;20051;-78
2023/10/21 01:06:36;;;;;;;188.20;69.80;;;9.80;99.90;;;;;;5099214;28;20067;-77
2023/10/21 01:09:02;;;;;;;345.25;88.53;;;9.80;99.90;;;;;;5091232;28;20040;-77
2023/10/21 01:11:28;;;;;;;272.98;79.78;;;9.90;99.90;;;;;;5089121;28;20040;-78
2023/10/21 01:13:55;;;;;;;330.10;86.80;;;9.90;99.90;;;;;;5084365;28;20068;-77
2023/10/21 01:16:22;;;;;;;334.60;88.05;;;9.90;99.90;;;;;;5096670;28;20077;-77
2023/10/21 01:18:47;;;;;;;441.85;99.35;;;9.80;99.90;;;;;;5099330;28;20097;-78
2023/10/21 01:21:13;;;;;;;458.40;99.50;;;9.90;99.90;;;;;;5087690;28;20032;-77
2023/10/21 01:23:39;;;;;;;303.65;82.68;;;9.90;99.90;;;;;;5099910;28;20055;-78
2023/10/21 01:26:06;;;;;;;244.38;72.95;;;9.90;99.90;;;;;;5114757;28;20042;-78
2023/10/21 01:28:34;;;;;;;376.95;87.80;;;9.90;99.90;;;;;;5096013;28;20132;-77
2023/10/21 01:31:00;;;;;;;327.20;83.37;;;9.90;99.90;;;;;;5091930;28;20079;-77
2023/10/21 01:33:25;;;;;;;322.38;84.25;;;9.90;99.90;;;;;;5083205;28;20043;-78
2023/10/21 01:35:52;;;;;;;283.30;77.65;;;9.90;99.90;;;;;;5084417;28;20366;-78
2023/10/21 01:38:20;;;;;;;329.75;82.28;;;9.80;99.90;;;;;;5108118;28;20073;-78
2023/10/21 01:40:47;;;;;;;315.13;82.70;;;9.80;99.90;;;;;;5081815;28;20124;-77
2023/10/21 01:43:14;;;;;;;350.48;83.80;;;10.00;99.90;;;;;;5087554;28;20048;-79
2023/10/21 01:45:40;;;;;;;327.00;82.05;;;9.80;99.90;;;;;;5094399;28;20490;-77
2023/10/21 01:48:06;;;;;;;399.65;89.88;;;9.70;99.90;;;;;;5081657;28;20052;-78
2023/10/21 01:50:32;;;;;;;551.63;107.15;;;9.70;99.90;;;;;;5100616;28;20082;-78
2023/10/21 01:52:58;;;;;;;400.63;91.68;;;9.70;99.90;;;;;;5084770;28;20044;-76
2023/10/21 01:55:24;;;;;;;462.83;97.55;;;9.70;99.90;;;;;;5105235;28;20490;-78
2023/10/21 01:57:51;;;;;;;417.15;93.32;;;9.70;99.90;;;;;;5106654;28;20050;-77
2023/10/21 02:00:20;;;;;;;436.08;95.47;;;9.90;99.90;;;;;;5096491;28;20115;-78
2023/10/21 02:02:56;;;;;;;301.75;80.43;;;9.70;99.90;;;;;;5090399;28;20055;-78
2023/10/21 02:05:23;;;;;;;261.27;77.50;;;9.70;99.90;;;;;;5083349;28;20039;-77
2023/10/21 02:07:50;;;;;;;396.30;89.93;;;9.60;99.90;;;;;;5092633;28;20036;-77
2023/10/21 02:10:18;;;;;;;245.40;73.90;;;9.60;99.90;;;;;;5078883;28;20036;-77
2023/10/21 02:12:44;;;;;;;429.65;92.05;;;9.60;99.90;;;;;;5091909;28;20051;-77
2023/10/21 02:15:14;;;;;;;245.05;73.90;;;9.70;99.90;;;;;;5080199;28;20119;-76
2023/10/21 02:17:44;;;;;;;399.75;87.68;;;9.80;99.90;;;;;;5111012;28;20044;-77
2023/10/21 02:20:14;;;;;;;460.63;96.55;;;9.50;99.90;;;;;;5097588;28;20047;-77
2023/10/21 02:22:41;;;;;;;307.52;78.95;;;9.50;99.90;;;;;;5098813;28;20119;-77
2023/10/21 02:25:14;;;;;;;240.75;69.97;;;9.50;99.90;;;;;;5096573;28;20103;-77
2023/10/21 02:27:40;;;;;;;419.35;90.00;;;9.50;99.90;;;;;;5093172;28;20056;-78
2023/10/21 02:30:12;;;;;;;235.20;69.43;;;9.40;99.90;;;;;;5098100;28;20077;-77
2023/10/21 02:32:41;;;;;;;309.77;78.13;;;9.40;99.90;;;;;;5096270;28;20079;-78
2023/10/21 02:35:08;;;;;;;287.75;75.95;;;9.40;99.90;;;;;;5089495;28;20436;-78
2023/10/21 02:37:34;;;;;;;292.25;75.35;;;9.30;99.90;;;;;;5089197;28;20078;-78
2023/10/21 02:39:59;;;;;;;230.82;69.45;;;9.40;99.90;;;;;;5094262;28;20044;-77
2023/10/21 02:42:25;;;;;;;482.73;96.65;;;9.30;99.90;;;;;;5100354;28;20032;-77
2023/10/21 02:44:53;;;;;;;318.23;77.63;;;9.30;99.90;;;;;;5097017;28;20044;-77
2023/10/21 02:47:19;;;;;;;300.70;76.78;;;9.30;99.90;;;;;;5093774;28;20096;-78
2023/10/21 02:49:45;;;;;;;209.10;67.25;;;9.20;99.90;;;;;;5109147;28;20079;-78
2023/10/21 02:52:10;;;;;;;199.07;65.32;;;9.20;99.90;;;;;;5112617;28;20067;-77
2023/10/21 02:54:38;;;;;;;404.52;86.93;;;9.20;99.90;;;;;;5122247;28;20048;-77
2023/10/21 02:57:04;;;;;;;315.37;76.87;;;9.10;99.90;;;;;;5097934;28;20040;-77
2023/10/21 02:59:35;;;;;;;412.17;89.68;;;9.10;99.90;;;;;;5099729;28;20507;-77
2023/10/21 03:02:00;;;;;;;315.42;76.85;;;9.10;99.90;;;;;;5102565;28;20063;-78
2023/10/21 03:04:26;;;;;;;293.75;76.03;;;9.60;99.90;;;;;;5089155;28;20405;-77
2023/10/21 03:06:52;;;;;;;249.45;68.00;;;9.10;99.90;;;;;;5091887;28;20040;-78
2023/10/21 03:09:17;;;;;;;321.48;77.60;;;9.00;99.90;;;;;;5108214;28;20044;-79
2023/10/21 03:11:43;;;;;;;243.93;69.80;;;9.00;99.90;;;;;;5116300;28;20389;-79
2023/10/21 03:14:08;;;;;;;214.20;67.40;;;9.00;99.90;;;;;;5078729;28;20037;-78
2023/10/21 03:16:34;;;;;;;305.40;77.53;;;9.10;99.90;;;;;;5088761;28;20070;-77
2023/10/21 03:19:04;;;;;;;278.17;75.70;;;9.10;99.90;;;;;;5086480;28;20093;-77
2023/10/21 03:21:30;;;;;;;388.17;87.65;;;9.10;99.90;;;;;;5098339;28;20036;-77
2023/10/21 03:23:56;;;;;;;264.75;73.43;;;9.10;99.90;;;;;;5103999;28;20048;-78
2023/10/21 03:26:21;;;;;;;369.00;84.43;;;9.10;99.90;;;;;;5088442;28;20047;-77
2023/10/21 03:28:47;;;;;;;247.95;71.82;;;9.40;99.90;;;;;;5085842;28;20040;-78
2023/10/21 03:31:13;;;;;;;273.45;74.55;;;9.10;99.90;;;;;;5082880;28;20162;-77
2023/10/21 03:33:38;;;;;;;378.20;87.10;;;9.10;99.90;;;;;;5094437;28;20099;-78
2023/10/21 03:36:05;;;;;;;283.95;76.70;;;9.20;99.90;;;;;;5102173;28;20040;-77
2023/10/21 03:38:31;;;;;;;326.15;81.32;;;9.20;99.90;;;;;;5107329;28;20113;-77
2023/10/21 03:41:23;;;;;;;355.83;82.25;;;9.20;99.90;;;;;;5087229;28;20044;-77
2023/10/21 03:43:50;;;;;;;205.13;68.45;;;9.20;99.90;;;;;;5085242;28;20459;-78
2023/10/21 03:46:20;;;;;;;445.15;93.93;;;9.20;99.90;;;;;;5098207;28;20039;-77
2023/10/21 03:48:46;;;;;;;335.98;83.15;;;9.20;99.90;;;;;;5085866;28;20048;-78
2023/10/21 03:51:12;;;;;;;353.10;83.45;;;9.20;99.90;;;;;;5112113;28;20036;-78
2023/10/21 03:53:40;;;;;;;219.65;69.32;;;9.30;99.90;;;;;;5100902;28;20115;-77
2023/10/21 03:56:06;;;;;;;;;;;9.20;99.90;;;;;;5089528;28;20123;-78
2023/10/21 03:58:32;;;;;;;313.80;77.72;;;9.20;99.90;;;;;;5100956;28;19974;-78
2023/10/21 04:00:58;;;;;;;300.63;77.07;;;9.20;99.90;;;;;;5098217;28;20046;-77
2023/10/21 04:03:25;;;;;;;383.20;84.93;;;9.20;99.90;;;;;;5117773;27;20044;-78
2023/10/21 04:05:55;;;;;;;281.05;73.75;;;9.30;99.90;;;;;;5085669;28;20076;-77
2023/10/21 04:08:21;;;;;;;309.88;77.07;;;9.20;99.90;;;;;;5083888;28;20447;-76
2023/10/21 04:10:47;;;;;;;342.85;79.50;;;9.20;99.90;;;;;;5087722;28;20131;-77
2023/10/21 04:13:13;;;;;;;266.85;70.90;;;9.20;99.90;;;;;;5103899;28;20064;-77
2023/10/21 04:15:39;;;;;;;297.65;75.13;;;9.20;99.90;;;;;;5089628;28;20040;-77
2023/10/21 04:18:05;;;;;;;309.92;78.68;;;9.20;99.90;;;;;;5106522;28;20126;-77
2023/10/21 04:20:33;;;;;;;329.52;79.78;;;9.20;99.90;;;;;;5086846;28;20032;-76
2023/10/21 04:23:00;;;;;;;219.70;67.50;;;9.20;99.90;;;;;;5096717;28;20032;-77
2023/10/21 04:25:26;;;;;;;295.73;74.40;;;9.20;99.90;;;;;;5097347;28;20136;-77
2023/10/21 04:27:52;;;;;;;335.80;80.03;;;9.20;99.90;;;;;;5094802;28;20039;-77
2023/10/21 04:30:18;;;;;;;361.25;83.57;;;9.10;99.90;;;;;;5100172;28;20044;-77
2023/10/21 04:32:43;;;;;;;319.02;77.65;;;9.20;99.90;;;;;;5102502;28;20032;-77
2023/10/21 04:35:09;;;;;;;252.48;71.45;;;9.20;99.90;;;;;;5093735;28;20040;-77
2023/10/21 04:37:36;;;;;;;355.02;80.75;;;9.10;99.90;;;;;;5093575;28;20074;-78
2023/10/21 04:40:02;;;;;;;222.48;65.72;;;9.10;99.90;;;;;;5079733;28;20461;-76
2023/10/21 04:42:28;;;;;;;536.53;100.47;;;9.10;99.90;;;;;;5063847;28;20051;-76
2023/10/21 04:44:54;;;;;;;217.88;65.82;;;9.10;99.90;;;;;;5098027;28;20044;-77
2023/10/21 04:47:20;;;;;;;258.27;68.47;;;9.10;99.90;;;;;;5085795;28;20056;-78
2023/10/21 04:49:45;;;;;;;322.05;75.43;;;9.10;99.90;;;;;;5089674;28;20077;-77
2023/10/21 04:52:12;;;;;;;395.27;85.55;;;9.10;99.90;;;;;;5068981;28;20104;-77
2023/10/21 04:54:38;;;;;;;186.80;59.30;;;9.10;99.90;;;;;;5095000;28;20032;-76
2023/10/21 04:57:04;;;;;;;290.15;72.60;;;9.00;99.90;;;;;;5080752;28;20102;-76
2023/10/21 04:59:29;;;;;;;287.73;69.65;;;9.00;99.90;;;;;;5093876;28;20040;-77
2023/10/21 05:01:56;;;;;;;134.10;51.83;;;9.00;99.90;;;;;;5090430;28;20117;-77
2023/10/21 05:04:22;;;;;;;162.50;55.33;;;8.90;99.90;;;;;;5085885;28;20127;-77
2023/10/21 05:06:54;;;;;;;181.63;59.00;;;8.90;99.90;;;;;;5090924;28;20056;-77
2023/10/21 05:09:19;;;;;;;154.77;54.83;;;8.90;99.90;;;;;;5085290;28;20041;-77
2023/10/21 05:11:45;;;;;;;293.42;69.47;;;8.90;99.90;;;;;;5098440;28;20039;-78
2023/10/21 05:14:11;;;;;;;323.35;74.32;;;8.90;99.90;;;;;;5098365;28;20044;-78
2023/10/21 05:16:36;;;;;;;280.85;70.80;;;8.90;99.90;;;;;;5086763;28;20048;-77
2023/10/21 05:19:04;;;;;;;202.57;60.85;;;8.90;99.90;;;;;;5089980;28;20090;-77
2023/10/21 05:21:31;;;;;;;135.52;53.38;;;8.90;99.90;;;;;;5096264;28;20051;-78
2023/10/21 05:23:57;;;;;;;303.05;70.50;;;8.80;99.90;;;;;;5098781;28;20080;-77
2023/10/21 05:26:22;;;;;;;171.23;56.88;;;8.80;99.90;;;;;;5088412;28;20508;-77
2023/10/21 05:28:48;;;;;;;185.85;57.72;;;8.80;99.90;;;;;;5093473;28;20032;-77
2023/10/21 05:31:14;;;;;;;138.80;51.95;;;8.80;99.90;;;;;;5100776;28;20123;-77
2023/10/21 05:33:40;;;;;;;131.90;50.53;;;8.90;99.90;;;;;;5096636;28;20127;-78
2023/10/21 05:36:07;;;;;;;141.48;51.53;;;8.80;99.90;;;;;;5104056;28;20092;-78
2023/10/21 05:38:32;;;;;;;283.13;67.07;;;8.80;99.90;;;;;;5079924;28;20058;-78
2023/10/21 05:40:58;;;;;;;183.27;56.60;;;8.90;99.90;;;;;;5078384;28;20099;-78
2023/10/21 05:43:24;;;;;;;227.25;62.97;;;8.80;99.90;;;;;;5097261;28;20536;-77
2023/10/21 05:45:50;;;;;;;242.15;61.35;;;9.10;99.90;;;;;;5077549;28;20389;-77
2023/10/21 05:48:15;;;;;;;254.60;64.88;;;8.80;99.90;;;;;;5092917;28;20048;-78
2023/10/21 05:50:41;;;;;;;187.50;57.13;;;8.80;99.90;;;;;;5104714;28;20491;-78
2023/10/21 05:53:13;;;;;;;238.50;61.85;;;8.80;99.90;;;;;;5086248;28;20127;-77
2023/10/21 05:55:43;;;;;;;187.57;56.92;;;8.90;99.90;;;;;;5093166;28;20068;-78
2023/10/21 05:58:09;;;;;;;167.25;54.55;;;8.80;99.90;;;;;;5077428;28;20416;-77
2023/10/21 06:00:35;;;;;;;270.02;64.43;;;8.80;99.90;;;;;;5083708;28;20037;-78
2023/10/21 06:03:01;;;;;;;172.82;56.20;;;8.80;99.90;;;;;;5077613;28;20052;-77
2023/10/21 06:05:27;;;;;;;171.60;55.40;;;8.80;99.90;;;;;;5086647;28;20051;-78
2023/10/21 06:07:53;;;;;;;333.42;71.88;;;8.80;99.90;;;;;;5075934;28;20047;-78
2023/10/21 06:10:20;;;;;;;123.07;48.55;;;9.70;99.90;;;;;;5095893;28;20043;-77
2023/10/21 06:12:46;;;;;;;266.73;64.80;;;8.90;99.90;;;;;;5082575;28;20450;-77
2023/10/21 06:15:12;;;;;;;241.57;62.28;;;8.80;99.90;;;;;;5066274;28;20440;-77
2023/10/21 06:17:38;;;;;;;191.15;57.17;;;8.90;99.90;;;;;;5083540;28;20049;-78
2023/10/21 06:20:05;;;;;;;124.05;47.63;;;8.90;99.90;;;;;;5085672;28;20081;-78
2023/10/21 06:22:31;;;;;;;297.17;69.85;;;8.90;99.90;;;;;;5098416;28;20117;-77
2023/10/21 06:24:56;;;;;;;95.90;44.90;;;9.00;99.90;;;;;;5111706;28;20040;-77
2023/10/21 06:27:22;;;;;;;179.25;58.15;;;9.00;99.90;;;;;;5068317;28;20044;-78
2023/10/21 06:29:48;;;;;;;215.60;61.60;;;9.00;99.90;;;;;;5094177;28;20032;-77
2023/10/21 06:32:14;;;;;;;174.25;56.78;;;9.00;99.90;;;;;;5111534;28;20048;-77
2023/10/21 06:34:39;;;;;;;319.10;70.65;;;9.10;99.90;;;;;;5083164;28;20066;-78
2023/10/21 06:37:05;;;;;;;147.35;50.78;;;9.70;99.90;;;;;;5106034;28;20118;-77
2023/10/21 06:39:31;;;;;;;166.18;51.03;;;9.10;99.90;;;;;;5091863;28;20040;-77
2023/10/21 06:41:57;;;;;;;149.45;51.47;;;9.10;99.90;;;;;;5063481;28;20413;-77
2023/10/21 06:44:23;;;;;;;127.53;47.22;;;9.10;99.90;;;;;;5091144;28;20072;-77
2023/10/21 06:46:49;;;;;;;112.65;43.97;;;9.20;99.90;;;;;;5077112;28;20036;-77
2023/10/21 06:49:15;;;;;;;124.40;46.75;;;9.20;99.90;;;;;;5087576;28;20044;-78
2023/10/21 06:51:41;;;;;;;109.80;44.45;;;9.20;99.90;;;;;;5096305;28;20036;-78
2023/10/21 06:54:07;;;;;;;128.27;46.72;;;9.30;99.90;;;;;;5093676;28;20100;-77
2023/10/21 06:56:37;;;;;;;138.43;46.20;;;9.80;99.90;;;;;;5084564;28;20096;-77
2023/10/21 06:59:03;;;;;;;107.38;43.10;;;9.30;99.90;;;;;;5098511;28;20044;-77
2023/10/21 07:01:29;;;;;;;160.10;50.30;;;9.30;99.90;;;;;;5106009;28;20059;-77
2023/10/21 07:03:54;;;;;;;129.55;45.83;;;9.40;99.90;;;;;;5083090;28;20047;-77
2023/10/21 07:06:23;;;;;;;155.77;49.17;;;9.30;99.90;;;;;;5089671;28;20040;-75
2023/10/21 07:08:48;;;;;;;190.25;56.42;;;9.40;99.90;;;;;;5089395;28;20135;-77
2023/10/21 07:11:14;;;;;;;163.77;50.90;;;9.50;99.90;;;;;;5083137;28;20070;-76
2023/10/21 07:13:41;;;;;;;91.72;42.58;;;9.50;99.90;;;;;;5096583;28;20485;-76
2023/10/21 07:16:10;;;;;;;126.10;47.03;;;9.60;99.90;;;;;;5091775;28;20131;-77
2023/10/21 07:18:39;;;;;;;116.63;45.58;;;9.60;99.90;;;;;;5098314;28;20389;-78
2023/10/21 07:21:07;;;;;;;131.80;47.97;;;9.70;99.90;;;;;;5103912;28;20044;-78
2023/10/21 07:23:33;;;;;;;205.73;57.03;;;9.60;99.90;;;;;;5092510;28;20078;-77
2023/10/21 07:25:58;;;;;;;118.82;44.10;;;9.70;99.90;;;;;;5076221;28;20429;-78
2023/10/21 07:28:24;;;;;;;95.57;40.80;;;9.70;99.90;;;;;;5096392;28;20042;-77
2023/10/21 07:30:52;;;;;;;153.18;49.70;;;9.70;99.90;;;;;;5092999;28;20040;-77
2023/10/21 07:33:17;;;;;;;131.25;47.55;;;9.80;99.90;;;;;;5079932;28;20084;-77
2023/10/21 07:35:43;;;;;;;106.55;43.05;;;9.80;99.90;;;;;;5096720;28;20043;-77
2023/10/21 07:38:09;;;;;;;93.68;39.20;;;9.80;99.90;;;;;;5087058;28;20040;-78
2023/10/21 07:40:34;;;;;;;166.32;50.70;;;9.90;99.90;;;;;;5084955;28;20106;-77
2023/10/21 07:43:01;;;;;;;122.10;45.42;;;9.90;99.90;;;;;;5095076;28;20474;-76
2023/10/21 07:45:28;;;;;;;182.57;50.75;;;10.20;99.90;;;;;;5096955;28;20040;-77
2023/10/21 07:47:54;;;;;;;114.15;42.85;;;10.00;99.90;;;;;;5090388;28;20067;-77
2023/10/21 07:50:20;;;;;;;104.38;40.10;;;10.40;99.90;;;;;;5095372;28;20067;-78
2023/10/21 07:52:45;;;;;;;82.03;37.80;;;10.10;99.90;;;;;;5093360;28;20044;-77
2023/10/21 07:55:12;;;;;;;101.40;40.15;;;10.10;99.90;;;;;;5095496;28;20051;-77
2023/10/21 07:57:41;;;;;;;161.73;47.45;;;10.10;99.90;;;;;;5074739;28;20052;-77
2023/10/21 08:00:07;;;;;;;136.18;47.13;;;10.10;99.90;;;;;;5091276;28;20981;-78
2023/10/21 08:02:45;;;;;;;163.43;49.95;;;10.20;99.90;;;;;;5094591;28;20054;-76
2023/10/21 08:05:11;;;;;;;111.72;43.30;;;10.30;99.90;;;;;;5098530;28;20044;-77
2023/10/21 08:07:38;;;;;;;197.93;50.67;;;10.30;99.90;;;;;;5103261;27;20045;-78
2023/10/21 08:10:07;;;;;;;89.25;38.15;;;10.30;99.90;;;;;;5080128;28;20043;-77
2023/10/21 08:12:33;;;;;;;87.00;37.63;;;10.40;99.90;;;;;;5079946;28;20093;-76
2023/10/21 08:15:07;;;;;;;235.55;56.85;;;10.40;99.90;;;;;;5082006;28;20033;-78
2023/10/21 08:17:33;;;;;;;133.88;47.90;;;10.50;99.90;;;;;;5112346;28;20112;-76
2023/10/21 08:19:59;;;;;;;73.05;35.33;;;10.50;99.90;;;;;;5080472;28;20078;-78
2023/10/21 08:22:26;;;;;;;87.05;39.50;;;10.50;99.90;;;;;;5077311;28;20048;-77
2023/10/21 08:24:52;;;;;;;212.68;56.40;;;10.60;99.90;;;;;;5089741;28;20122;-77
2023/10/21 08:27:18;;;;;;;119.13;44.20;;;10.60;99.90;;;;;;5086941;28;20105;-77
2023/10/21 08:29:47;;;;;;;89.53;38.17;;;10.80;99.90;;;;;;5081586;28;20111;-77
2023/10/21 08:32:13;;;;;;;95.65;40.08;;;10.90;99.90;;;;;;5085783;28;20048;-77
2023/10/21 08:34:38;;;;;;;67.10;34.55;;;10.80;99.90;;;;;;5089813;28;20032;-78
2023/10/21 08:37:05;;;;;;;100.97;40.47;;;10.80;99.90;;;;;;5091567;28;20466;-76
2023/10/21 08:39:31;;;;;;;68.75;34.70;;;11.50;99.90;;;;;;5076279;28;20500;-77
2023/10/21 08:41:59;;;;;;;74.32;34.08;;;11.00;99.90;;;;;;5109635;27;20043;-77
2023/10/21 08:44:25;;;;;;;103.07;41.53;;;11.00;99.90;;;;;;5084259;28;20041;-77
2023/10/21 08:46:56;;;;;;;129.00;43.97;;;11.40;99.90;;;;;;5089466;28;20050;-78
2023/10/21 08:49:26;;;;;;;89.82;38.72;;;11.20;99.90;;;;;;5086343;28;20061;-77
2023/10/21 08:51:53;;;;;;;84.53;37.30;;;11.20;99.90;;;;;;5090737;28;20052;-76
2023/10/21 08:54:20;;;;;;;79.60;40.30;;;11.20;99.90;;;;;;5074456;28;20048;-76
2023/10/21 08:56:46;;;;;;;67.80;34.00;;;11.30;99.90;;;;;;5090908;28;20762;-77
2023/10/21 08:59:12;;;;;;;52.17;30.63;;;11.50;99.90;;;;;;5086944;28;20114;-75
2023/10/21 09:01:39;;;;;;;82.20;36.65;;;11.70;99.90;;;;;;5087596;28;20444;-77
2023/10/21 09:04:07;;;;;;;50.72;29.60;;;12.00;99.90;;;;;;5084959;28;20044;-77
2023/10/21 09:06:33;;;;;;;49.22;29.17;;;12.10;99.90;;;;;;5094240;28;20158;-77
2023/10/21 09:08:59;;;;;;;41.13;27.55;;;12.30;99.90;;;;;;5082549;28;20062;-77
2023/10/21 09:11:28;;;;;;;53.88;29.20;;;12.50;99.90;;;;;;5081300;28;20040;-77
2023/10/21 09:13:58;;;;;;;42.58;24.55;;;12.60;99.90;;;;;;5097029;28;20420;-77
2023/10/21 09:16:34;;;;;;;38.42;24.02;;;12.80;99.90;;;;;;5091790;28;20032;-78
2023/10/21 09:19:05;;;;;;;29.80;20.58;;;13.00;99.90;;;;;;5093682;28;20040;-77
2023/10/21 09:21:45;;;;;;;33.92;19.63;;;13.20;99.90;;;;;;5095497;28;20032;-77
2023/10/21 09:24:12;;;;;;;48.08;25.13;;;13.30;99.90;;;;;;5081500;28;20043;-76
2023/10/21 09:26:42;;;;;;;29.55;19.17;;;13.40;99.90;;;;;;5085043;28;20045;-79
2023/10/21 09:29:13;;;;;;;29.88;16.50;;;13.50;99.90;;;;;;5088558;28;20508;-77
2023/10/21 09:31:46;;;;;;;28.00;17.23;;;13.80;99.90;;;;;;5084403;28;20050;-78
2023/10/21 09:34:20;;;;;;;36.28;17.63;;;13.50;99.90;;;;;;5066543;28;20040;-78
2023/10/21 09:36:47;;;;;;;23.10;14.85;;;13.60;99.90;;;;;;5090487;28;20044;-77
2023/10/21 09:39:13;;;;;;;32.53;17.58;;;13.50;99.90;;;;;;5091492;28;20118;-75
2023/10/21 09:41:40;;;;;;;22.10;13.95;;;13.50;99.90;;;;;;5068268;28;20079;-76
2023/10/21 09:44:08;;;;;;;30.92;16.58;;;13.40;99.90;;;;;;5091522;28;20036;-75
2023/10/21 09:46:35;;;;;;;27.35;15.98;;;13.40;99.90;;;;;;5091835;28;20040;-77
2023/10/21 09:49:05;;;;;;;28.30;15.48;;;13.30;99.90;;;;;;5087245;28;20150;-77
2023/10/21 09:51:36;;;;;;;37.53;18.10;;;13.40;99.90;;;;;;5077472;28;20048;-78
2023/10/21 09:54:12;;;;;;;18.73;13.32;;;13.30;99.90;;;;;;5083686;28;20111;-77
2023/10/21 09:56:39;;;;;;;25.90;16.38;;;13.30;99.90;;;;;;5088940;28;20358;-77
2023/10/21 09:59:06;;;;;;;29.60;17.27;;;13.30;99.90;;;;;;5096643;28;20131;-79
2023/10/21 10:01:33;;;;;;;38.78;20.00;;;13.30;99.90;;;;;;5094804;28;20056;-78
2023/10/21 10:04:01;;;;;;;22.52;13.05;;;13.40;99.90;;;;;;5099276;28;20085;-78
2023/10/21 10:06:28;;;;;;;19.73;10.98;;;13.40;99.90;;;;;;5084586;28;20405;-78
2023/10/21 10:08:55;;;;;;;20.38;11.18;;;13.40;99.90;;;;;;5077518;28;20045;-78
2023/10/21 10:11:24;;;;;;;18.50;9.38;;;13.50;99.90;;;;;;5085985;28;20032;-77
2023/10/21 10:13:50;;;;;;;18.48;10.95;;;13.50;99.90;;;;;;5112367;28;20075;-77
2023/10/21 10:16:22;;;;;;;17.55;9.18;;;13.50;99.90;;;;;;5083174;28;20379;-77
2023/10/21 10:18:50;;;;;;;14.30;7.55;;;13.50;99.90;;;;;;5073775;28;20056;-76
2023/10/21 10:21:17;;;;;;;18.57;8.53;;;13.50;99.90;;;;;;5080431;28;20073;-78
2023/10/21 10:23:51;;;;;;;19.65;9.57;;;13.50;99.90;;;;;;5077939;28;20040;-77
2023/10/21 10:26:36;;;;;;;14.80;7.10;;;13.40;99.90;;;;;;5102779;28;20029;-78
2023/10/21 10:29:26;;;;;;;15.70;6.75;;;13.60;99.90;;;;;;5084701;28;20040;-77
2023/10/21 10:32:15;;;;;;;9.02;6.07;;;13.60;99.90;;;;;;5084310;28;20343;-79
2023/10/21 10:34:48;;;;;;;;;;;13.50;99.90;;;;;;5084311;28;20063;-77
2023/10/21 10:37:34;;;;;;;13.82;5.95;;;13.50;99.90;;;;;;5086574;28;19920;-78
2023/10/21 10:40:05;;;;;;;12.73;5.88;;;13.50;99.90;;;;;;5087721;28;20074;-77
2023/10/21 10:42:34;;;;;;;21.35;9.48;;;14.00;99.90;;;;;;5091836;28;20051;-77
2023/10/21 10:45:00;;;;;;;12.57;6.03;;;13.50;99.90;;;;;;5083307;28;20094;-78
2023/10/21 10:47:28;;;;;;;13.40;6.30;;;13.50;99.90;;;;;;5074101;28;20506;-76
2023/10/21 10:49:58;;;;;;;13.63;6.50;;;13.50;99.90;;;;;;5082069;28;20037;-78
2023/10/21 10:52:28;;;;;;;11.30;5.93;;;13.40;99.90;;;;;;5075269;28;20044;-76
2023/10/21 10:54:53;;;;;;;10.85;6.45;;;13.40;99.90;;;;;;5091729;28;20033;-77
2023/10/21 10:57:21;;;;;;;13.82;5.72;;;13.50;99.90;;;;;;5093955;28;20058;-77
2023/10/21 10:59:47;;;;;;;13.88;6.43;;;13.50;99.90;;;;;;5093512;28;20127;-77
2023/10/21 11:02:14;;;;;;;12.88;5.88;;;13.40;99.90;;;;;;5117096;28;20097;-77
2023/10/21 11:04:46;;;;;;;12.52;6.40;;;13.50;99.90;;;;;;5084884;28;20059;-78
2023/10/21 11:07:12;;;;;;;10.05;5.07;;;13.40;99.90;;;;;;5081314;28;20397;-76
2023/10/21 11:09:38;;;;;;;8.35;5.03;;;13.50;99.90;;;;;;5095547;28;20047;-77
2023/10/21 11:12:04;;;;;;;6.63;4.50;;;13.50;99.90;;;;;;5094854;28;20047;-78
2023/10/21 11:14:30;;;;;;;8.13;5.57;;;13.50;99.90;;;;;;5080960;28;20051;-80
2023/10/21 11:16:56;;;;;;;10.23;5.15;;;13.50;99.90;;;;;;5087725;28;20048;-79
2023/10/21 11:19:23;;;;;;;19.08;6.05;;;13.50;99.90;;;;;;5088188;28;20048;-78
2023/10/21 11:21:48;;;;;;;6.05;4.03;;;13.50;99.90;;;;;;5099670;28;20562;-76
2023/10/21 11:24:15;;;;;;;12.35;5.28;;;13.50;99.90;;;;;;5088219;28;20040;-78
2023/10/21 11:26:42;;;;;;;6.35;2.92;;;13.50;99.90;;;;;;5085733;28;20044;-77
2023/10/21 11:29:08;;;;;;;7.38;3.25;;;13.40;99.90;;;;;;5091878;28;20485;-77
2023/10/21 11:31:35;;;;;;;6.57;4.00;;;13.40;99.90;;;;;;5081427;28;20507;-78
2023/10/21 11:34:14;;;;;;;7.60;3.55;;;13.40;99.90;;;;;;5082689;28;20069;-78
2023/10/21 11:36:46;;;;;;;7.63;3.55;;;13.50;99.90;;;;;;5093167;28;20040;-78
2023/10/21 11:39:15;;;;;;;5.63;2.83;;;13.50;99.90;;;;;;5079550;28;20040;-78
2023/10/21 11:41:48;;;;;;;5.55;3.05;;;13.70;99.90;;;;;;5084040;28;20048;-78
2023/10/21 11:44:17;;;;;;;8.15;3.67;;;13.70;99.90;;;;;;5077813;28;20044;-79
2023/10/21 11:46:43;;;;;;;5.10;2.65;;;13.80;99.90;;;;;;5096839;28;20044;-78
2023/10/21 11:49:15;;;;;;;9.18;3.58;;;13.80;99.90;;;;;;5099074;28;20122;-78
2023/10/21 11:51:47;;;;;;;6.32;3.10;;;13.80;99.90;;;;;;5109322;28;20036;-78
2023/10/21 12:05:19;;;;;;;4.07;2.30;;;13.70;99.90;;;;;;5113010;28;20051;-79
2023/10/21 12:13:25;;;;;;;7.60;2.38;;;13.40;99.90;;;;;;5078029;28;20044;-78
2023/10/21 12:26:51;;;;;;;5.20;2.20;;;13.10;99.90;;;;;;5082319;28;20048;-78
2023/10/21 12:39:48;;;;;;;3.80;1.60;;;13.30;99.90;;;;;;5115820;28;20508;-79
2023/10/21 12:42:26;;;;;;;4.47;1.88;;;13.40;99.90;;;;;;5099357;28;20114;-77
2023/10/21 12:44:54;;;;;;;4.07;1.40;;;13.50;99.90;;;;;;5086745;28;20086;-78
2023/10/21 12:47:20;;;;;;;4.57;1.42;;;13.50;99.90;;;;;;5103889;28;20052;-79
2023/10/21 12:49:48;;;;;;;3.28;1.30;;;13.60;99.90;;;;;;5103230;28;20051;-78
2023/10/21 12:52:15;;;;;;;6.00;1.52;;;13.50;99.90;;;;;;5097224;28;20046;-77
2023/10/21 12:54:43;;;;;;;3.15;1.30;;;13.50;99.90;;;;;;5082353;28;20071;-78
2023/10/21 12:57:10;;;;;;;5.90;1.60;;;13.50;99.90;;;;;;5098297;28;20051;-76
2023/10/21 12:59:35;;;;;;;3.38;1.48;;;13.50;99.90;;;;;;5114407;28;20110;-78
2023/10/21 13:02:07;;;;;;;5.63;1.42;;;13.50;99.90;;;;;;5098317;28;20059;-76
2023/10/21 13:04:37;;;;;;;3.25;1.10;;;13.50;99.90;;;;;;5096601;28;20089;-78
2023/10/21 13:07:06;;;;;;;5.25;1.50;;;13.50;99.90;;;;;;5105852;28;20047;-77
2023/10/21 13:09:32;;;;;;;4.30;1.40;;;13.50;99.90;;;;;;5107911;28;20054;-78